createdAt,value
2022-10-02T00:00:07.191Z,12.91
2022-10-02T00:01:07.209Z,12.94
2022-10-02T00:02:08.708Z,13.01
2022-10-02T00:03:07.148Z,13.06
2022-10-02T00:04:08.017Z,13.09
2022-10-02T00:05:11.173Z,13.13
2022-10-02T00:06:07.119Z,13.12
2022-10-02T00:07:07.106Z,13.08
2022-10-02T00:08:07.117Z,13.03
2022-10-02T00:09:07.898Z,12.99
2022-10-02T00:10:07.186Z,12.93
2022-10-02T00:11:07.070Z,12.84
2022-10-02T00:12:07.061Z,12.68
2022-10-02T00:13:13.349Z,12.53
2022-10-02T00:14:07.925Z,12.39
2022-10-02T00:17:34.147Z,12.33
2022-10-02T00:18:34.720Z,12.32
2022-10-02T00:19:34.717Z,12.28
2022-10-02T00:20:34.689Z,12.25
2022-10-02T00:21:35.014Z,12.29
2022-10-02T00:22:34.778Z,12.37
2022-10-02T00:23:36.039Z,12.45
2022-10-02T00:24:34.611Z,12.53
2022-10-02T00:25:35.524Z,12.55
2022-10-02T00:26:35.187Z,12.62
2022-10-02T00:27:34.651Z,12.65
2022-10-02T00:28:36.754Z,12.69
2022-10-02T00:29:36.221Z,12.70
2022-10-02T00:30:34.580Z,12.69
2022-10-02T00:31:34.618Z,12.68
2022-10-02T00:32:34.568Z,12.65
2022-10-02T00:33:34.581Z,12.58
2022-10-02T00:34:35.579Z,12.55
2022-10-02T00:35:36.344Z,12.53
2022-10-02T00:36:38.845Z,12.45
2022-10-02T00:37:35.329Z,12.43
2022-10-02T00:38:34.761Z,12.39
2022-10-02T00:39:34.537Z,12.40
2022-10-02T00:40:34.889Z,12.40
2022-10-02T00:41:35.248Z,12.43
2022-10-02T00:42:35.234Z,12.43
2022-10-02T00:43:35.393Z,12.45
2022-10-02T00:44:34.912Z,12.48
2022-10-02T00:45:34.523Z,12.50
2022-10-02T00:46:36.526Z,12.48
2022-10-02T00:47:34.395Z,12.47
2022-10-02T00:48:34.447Z,12.47
2022-10-02T00:49:34.443Z,12.47
2022-10-02T00:50:34.407Z,12.47
2022-10-02T00:51:34.355Z,12.51
2022-10-02T00:52:34.473Z,12.51
2022-10-02T00:53:35.177Z,12.48
2022-10-02T00:55:53.670Z,12.39
2022-10-02T01:01:50.114Z,12.21
2022-10-02T01:02:51.017Z,12.18
2022-10-02T01:03:51.017Z,12.18
2022-10-02T01:04:52.390Z,12.17
2022-10-02T01:05:52.381Z,12.18
2022-10-02T01:06:51.926Z,12.17
2022-10-02T01:07:50.969Z,12.15
2022-10-02T01:08:50.984Z,12.12
2022-10-02T01:09:51.236Z,12.10
2022-10-02T01:10:50.925Z,12.08
2022-10-02T01:11:51.207Z,12.07
2022-10-02T01:12:51.273Z,12.02
2022-10-02T01:13:50.951Z,11.96
2022-10-02T01:14:51.202Z,11.91
2022-10-02T01:15:50.876Z,11.86
2022-10-02T01:16:50.897Z,11.85
2022-10-02T01:17:50.859Z,11.81
2022-10-02T01:18:52.391Z,11.78
2022-10-02T01:19:52.711Z,11.76
2022-10-02T01:20:50.806Z,11.77
2022-10-02T01:21:51.748Z,11.83
2022-10-02T01:22:50.787Z,11.88
2022-10-02T01:23:50.705Z,11.93
2022-10-02T01:24:50.793Z,11.96
2022-10-02T01:25:50.673Z,11.97
2022-10-02T01:26:50.666Z,11.96
2022-10-02T01:27:50.681Z,11.93
2022-10-02T01:28:50.642Z,11.96
2022-10-02T01:29:50.651Z,11.93
2022-10-02T01:30:50.692Z,11.91
2022-10-02T01:31:50.688Z,11.88
2022-10-02T01:32:50.601Z,11.85
2022-10-02T01:33:50.574Z,11.83
2022-10-02T01:34:50.563Z,11.83
2022-10-02T01:35:50.584Z,11.85
2022-10-02T01:36:50.599Z,11.85
2022-10-02T01:37:50.552Z,11.86
2022-10-02T01:38:50.534Z,11.88
2022-10-02T01:39:50.530Z,11.93
2022-10-02T01:40:50.604Z,11.95
2022-10-02T01:41:50.618Z,11.95
2022-10-02T01:42:50.573Z,11.95
2022-10-02T01:43:50.659Z,11.93
2022-10-02T01:44:50.608Z,11.99
2022-10-02T01:45:50.575Z,12.03
2022-10-02T01:46:50.573Z,12.10
2022-10-02T01:47:50.555Z,12.12
2022-10-02T01:48:50.672Z,12.17
2022-10-02T01:49:50.500Z,12.20
2022-10-02T01:50:50.518Z,12.25
2022-10-02T01:51:50.412Z,12.26
2022-10-02T01:52:50.446Z,12.29
2022-10-02T01:53:50.584Z,12.28
2022-10-02T01:54:50.533Z,12.29
2022-10-02T01:55:51.454Z,12.28
2022-10-02T01:56:50.345Z,12.28
2022-10-02T01:57:50.348Z,12.25
2022-10-02T01:58:50.381Z,12.23
2022-10-02T01:59:50.420Z,12.23
2022-10-02T02:00:50.584Z,12.26
2022-10-02T02:01:50.355Z,12.29
2022-10-02T02:02:50.365Z,12.29
2022-10-02T02:03:53.271Z,12.32
2022-10-02T02:04:50.374Z,12.37
2022-10-02T02:05:50.747Z,12.39
2022-10-02T02:06:50.551Z,12.44
2022-10-02T02:07:50.943Z,12.44
2022-10-02T02:08:50.298Z,12.47
2022-10-02T02:09:50.221Z,12.47
2022-10-02T02:10:50.786Z,12.48
2022-10-02T02:11:50.157Z,12.47
2022-10-02T02:12:50.308Z,12.43
2022-10-02T02:13:50.965Z,12.30
2022-10-02T02:14:50.295Z,12.21
2022-10-02T02:15:50.284Z,12.15
2022-10-02T02:16:50.334Z,12.12
2022-10-02T02:17:50.566Z,12.11
2022-10-02T02:18:50.678Z,12.12
2022-10-02T02:19:50.224Z,12.18
2022-10-02T02:20:50.164Z,12.25
2022-10-02T02:21:50.164Z,12.29
2022-10-02T02:22:50.260Z,12.33
2022-10-02T02:23:50.614Z,12.36
2022-10-02T02:24:50.582Z,12.40
2022-10-02T02:25:50.405Z,12.43
2022-10-02T02:26:50.333Z,12.48
2022-10-02T02:27:50.543Z,12.51
2022-10-02T02:28:50.353Z,12.54
2022-10-02T02:29:50.101Z,12.54
2022-10-02T02:30:50.372Z,12.53
2022-10-02T02:31:50.389Z,12.50
2022-10-02T02:32:50.086Z,12.50
2022-10-02T02:33:52.046Z,12.51
2022-10-02T02:34:50.279Z,12.51
2022-10-02T02:35:50.299Z,12.53
2022-10-02T02:36:50.212Z,12.50
2022-10-02T02:37:50.006Z,12.48
2022-10-02T02:38:50.126Z,12.44
2022-10-02T02:39:50.087Z,12.43
2022-10-02T02:40:50.149Z,12.39
2022-10-02T02:41:49.886Z,12.39
2022-10-02T02:42:50.300Z,12.39
2022-10-02T02:43:49.882Z,12.39
2022-10-02T02:44:49.911Z,12.36
2022-10-02T02:45:50.504Z,12.37
2022-10-02T02:46:49.890Z,12.39
2022-10-02T02:47:49.835Z,12.43
2022-10-02T02:48:49.908Z,12.44
2022-10-02T02:49:49.746Z,12.50
2022-10-02T02:50:49.714Z,12.50
2022-10-02T02:51:49.899Z,12.50
2022-10-02T02:52:49.792Z,12.47
2022-10-02T02:53:49.806Z,12.48
2022-10-02T02:54:49.822Z,12.47
2022-10-02T02:55:49.748Z,12.43
2022-10-02T02:56:49.689Z,12.37
2022-10-02T02:57:49.773Z,12.35
2022-10-02T02:58:49.763Z,12.35
2022-10-02T02:59:49.666Z,12.35
2022-10-02T03:00:49.931Z,12.35
2022-10-02T03:01:49.779Z,12.36
2022-10-02T03:02:49.666Z,12.33
2022-10-02T03:03:49.693Z,12.32
2022-10-02T03:04:49.722Z,12.30
2022-10-02T03:05:49.577Z,12.30
2022-10-02T03:06:49.584Z,12.29
2022-10-02T03:07:49.613Z,12.28
2022-10-02T03:08:49.687Z,12.30
2022-10-02T03:09:49.506Z,12.29
2022-10-02T03:10:49.579Z,12.28
2022-10-02T03:11:49.475Z,12.26
2022-10-02T03:12:49.514Z,12.25
2022-10-02T03:13:49.463Z,12.21
2022-10-02T03:14:49.443Z,12.23
2022-10-02T03:15:49.495Z,12.21
2022-10-02T03:16:49.433Z,12.23
2022-10-02T03:17:49.404Z,12.21
2022-10-02T03:18:49.470Z,12.21
2022-10-02T03:19:49.388Z,12.25
2022-10-02T03:20:49.394Z,12.26
2022-10-02T03:21:49.388Z,12.25
2022-10-02T03:22:49.389Z,12.23
2022-10-02T03:23:49.352Z,12.23
2022-10-02T03:24:49.879Z,12.21
2022-10-02T03:25:49.538Z,12.20
2022-10-02T03:26:49.808Z,12.21
2022-10-02T03:27:49.386Z,12.21
2022-10-02T03:28:57.188Z,12.23
2022-10-02T03:29:50.166Z,12.21
2022-10-02T03:30:49.406Z,12.23
2022-10-02T03:31:49.308Z,12.21
2022-10-02T03:32:49.249Z,12.23
2022-10-02T03:33:49.263Z,12.28
2022-10-02T03:34:49.258Z,12.33
2022-10-02T03:35:49.210Z,12.39
2022-10-02T03:36:49.820Z,12.44
2022-10-02T03:37:49.191Z,12.47
2022-10-02T03:39:00.699Z,12.48
2022-10-02T03:39:49.816Z,12.50
2022-10-02T03:40:49.171Z,12.54
2022-10-02T03:41:49.855Z,12.54
2022-10-02T03:42:49.177Z,12.55
2022-10-02T03:43:49.124Z,12.58
2022-10-02T03:44:49.126Z,12.62
2022-10-02T03:45:51.739Z,12.55
2022-10-02T03:46:49.167Z,12.50
2022-10-02T03:47:49.076Z,12.44
2022-10-02T03:48:49.111Z,12.39
2022-10-02T03:49:49.054Z,12.36
2022-10-02T03:50:49.055Z,12.35
2022-10-02T03:51:49.036Z,12.30
2022-10-02T03:52:49.098Z,12.32
2022-10-02T03:53:48.998Z,12.35
2022-10-02T03:54:49.051Z,12.36
2022-10-02T03:55:49.670Z,12.39
2022-10-02T03:56:49.843Z,12.40
2022-10-02T03:57:48.979Z,12.43
2022-10-02T03:58:48.949Z,12.43
2022-10-02T03:59:48.954Z,12.44
2022-10-02T04:00:49.227Z,12.43
2022-10-02T04:01:49.396Z,12.37
2022-10-02T04:02:48.916Z,12.33
2022-10-02T04:03:48.969Z,12.30
2022-10-02T04:04:48.886Z,12.26
2022-10-02T04:05:48.885Z,12.29
2022-10-02T04:06:48.904Z,12.21
2022-10-02T04:07:52.600Z,12.15
2022-10-02T04:08:48.956Z,12.10
2022-10-02T04:09:48.865Z,12.05
2022-10-02T04:10:48.824Z,12.00
2022-10-02T04:11:48.804Z,11.96
2022-10-02T04:12:48.842Z,11.89
2022-10-02T04:13:48.774Z,11.85
2022-10-02T04:14:48.776Z,11.83
2022-10-02T04:15:49.931Z,11.83
2022-10-02T04:16:48.829Z,11.85
2022-10-02T04:17:49.134Z,11.86
2022-10-02T04:18:49.012Z,11.88
2022-10-02T04:19:48.751Z,11.93
2022-10-02T04:20:49.162Z,11.91
2022-10-02T04:21:48.965Z,11.95
2022-10-02T04:22:49.123Z,11.95
2022-10-02T04:23:48.686Z,11.95
2022-10-02T04:24:49.183Z,11.95
2022-10-02T04:25:49.133Z,11.89
2022-10-02T04:26:49.136Z,11.86
2022-10-02T04:27:49.031Z,11.85
2022-10-02T04:28:49.006Z,11.86
2022-10-02T04:29:49.039Z,11.89
2022-10-02T04:30:49.115Z,11.91
2022-10-02T04:31:48.904Z,11.89
2022-10-02T04:32:48.897Z,11.93
2022-10-02T04:33:49.046Z,11.93
2022-10-02T04:34:49.042Z,11.96
2022-10-02T04:35:49.828Z,11.96
2022-10-02T04:36:48.983Z,11.95
2022-10-02T04:37:50.682Z,11.96
2022-10-02T04:38:48.899Z,11.99
2022-10-02T04:39:48.928Z,12.03
2022-10-02T04:40:48.780Z,12.07
2022-10-02T04:41:48.821Z,12.07
2022-10-02T04:42:48.910Z,12.03
2022-10-02T04:43:48.962Z,12.03
2022-10-02T04:44:48.952Z,12.07
2022-10-02T04:45:49.207Z,12.08
2022-10-02T04:46:48.703Z,12.10
2022-10-02T04:47:48.655Z,12.11
2022-10-02T04:48:48.971Z,12.10
2022-10-02T04:49:48.810Z,12.10
2022-10-02T04:50:48.803Z,12.12
2022-10-02T04:51:48.836Z,12.18
2022-10-02T04:52:48.799Z,12.21
2022-10-02T04:53:48.769Z,12.25
2022-10-02T04:54:48.823Z,12.28
2022-10-02T04:55:48.713Z,12.28
2022-10-02T04:56:48.729Z,12.26
2022-10-02T04:57:48.832Z,12.26
2022-10-02T04:58:48.369Z,12.29
2022-10-02T04:59:48.761Z,12.30
2022-10-02T05:00:49.044Z,12.33
2022-10-02T05:01:48.399Z,12.37
2022-10-02T05:02:48.579Z,12.43
2022-10-02T05:03:48.373Z,12.44
2022-10-02T05:04:48.780Z,12.45
2022-10-02T05:05:48.670Z,12.45
2022-10-02T05:06:48.695Z,12.45
2022-10-02T05:07:48.630Z,12.45
2022-10-02T05:08:48.635Z,12.44
2022-10-02T05:09:48.484Z,12.43
2022-10-02T05:10:48.553Z,12.43
2022-10-02T05:11:48.674Z,12.39
2022-10-02T05:12:48.568Z,12.40
2022-10-02T05:13:48.582Z,12.40
2022-10-02T05:14:48.561Z,12.40
2022-10-02T05:15:48.554Z,12.40
2022-10-02T05:16:48.501Z,12.39
2022-10-02T05:17:48.474Z,12.39
2022-10-02T05:18:48.499Z,12.37
2022-10-02T05:19:48.547Z,12.37
2022-10-02T05:20:48.503Z,12.37
2022-10-02T05:21:48.213Z,12.37
2022-10-02T05:22:48.448Z,12.39
2022-10-02T05:23:48.478Z,12.39
2022-10-02T05:24:48.476Z,12.43
2022-10-02T05:25:48.279Z,12.43
2022-10-02T05:26:48.384Z,12.45
2022-10-02T05:27:48.521Z,12.47
2022-10-02T05:28:50.136Z,12.50
2022-10-02T05:29:54.205Z,12.53
2022-10-02T05:30:54.907Z,12.51
2022-10-02T05:31:54.952Z,12.48
2022-10-02T05:32:48.353Z,12.44
2022-10-02T05:33:48.669Z,12.43
2022-10-02T05:34:48.272Z,12.39
2022-10-02T05:35:48.515Z,12.37
2022-10-02T05:36:48.361Z,12.36
2022-10-02T05:37:48.067Z,12.37
2022-10-02T05:38:48.157Z,12.37
2022-10-02T05:39:47.869Z,12.37
2022-10-02T05:40:48.318Z,12.37
2022-10-02T05:41:48.832Z,12.39
2022-10-02T05:42:48.782Z,12.40
2022-10-02T05:43:48.189Z,12.40
2022-10-02T05:44:48.123Z,12.44
2022-10-02T05:45:48.317Z,12.45
2022-10-02T05:46:48.230Z,12.44
2022-10-02T05:47:48.148Z,12.39
2022-10-02T05:48:48.145Z,12.39
2022-10-02T05:49:48.132Z,12.37
2022-10-02T05:50:48.147Z,12.37
2022-10-02T05:51:47.997Z,12.37
2022-10-02T05:52:48.001Z,12.39
2022-10-02T05:53:48.108Z,12.37
2022-10-02T05:54:47.933Z,12.36
2022-10-02T05:55:47.966Z,12.33
2022-10-02T05:56:47.926Z,12.32
2022-10-02T05:57:48.155Z,12.29
2022-10-02T05:58:48.142Z,12.28
2022-10-02T05:59:48.108Z,12.28
2022-10-02T06:00:47.896Z,12.28
2022-10-02T06:01:47.999Z,12.28
2022-10-02T06:02:47.993Z,12.29
2022-10-02T06:03:47.815Z,12.29
2022-10-02T06:04:47.970Z,12.32
2022-10-02T06:05:47.988Z,12.33
2022-10-02T06:06:47.912Z,12.35
2022-10-02T06:07:47.950Z,12.36
2022-10-02T06:08:47.881Z,12.39
2022-10-02T06:09:47.867Z,12.39
2022-10-02T06:10:47.891Z,12.44
2022-10-02T06:11:47.845Z,12.44
2022-10-02T06:12:48.991Z,12.43
2022-10-02T06:13:47.816Z,12.43
2022-10-02T06:14:50.702Z,12.44
2022-10-02T06:15:47.848Z,12.44
2022-10-02T06:16:47.965Z,12.44
2022-10-02T06:17:47.843Z,12.45
2022-10-02T06:18:47.760Z,12.51
2022-10-02T06:19:47.867Z,12.57
2022-10-02T06:20:47.779Z,12.65
2022-10-02T06:21:47.943Z,12.69
2022-10-02T06:22:47.333Z,12.70
2022-10-02T06:23:47.362Z,12.75
2022-10-02T06:24:47.336Z,12.81
2022-10-02T06:25:47.358Z,12.86
2022-10-02T06:26:47.303Z,12.87
2022-10-02T06:27:47.387Z,12.90
2022-10-02T06:28:47.296Z,12.91
2022-10-02T06:29:47.293Z,12.94
2022-10-02T06:30:47.263Z,12.95
2022-10-02T06:31:47.378Z,13.02
2022-10-02T06:32:47.265Z,13.08
2022-10-02T06:33:47.212Z,13.13
2022-10-02T06:34:48.263Z,13.16
2022-10-02T06:35:47.297Z,13.17
2022-10-02T06:36:47.186Z,13.19
2022-10-02T06:37:47.178Z,13.19
2022-10-02T06:38:47.182Z,13.20
2022-10-02T06:39:47.265Z,13.19
2022-10-02T06:40:47.140Z,13.17
2022-10-02T06:41:47.181Z,13.17
2022-10-02T06:42:47.145Z,13.17
2022-10-02T06:43:47.679Z,13.17
2022-10-02T06:44:47.155Z,13.17
2022-10-02T06:45:47.148Z,13.19
2022-10-02T06:46:51.166Z,13.21
2022-10-02T06:47:47.115Z,13.26
2022-10-02T06:48:47.048Z,13.27
2022-10-02T06:49:47.048Z,13.31
2022-10-02T06:50:47.048Z,13.31
2022-10-02T06:51:47.021Z,13.36
2022-10-02T06:52:47.045Z,13.36
2022-10-02T06:53:47.050Z,13.40
2022-10-02T06:54:46.981Z,13.46
2022-10-02T06:55:46.993Z,13.50
2022-10-02T06:56:46.994Z,13.57
2022-10-02T06:57:46.955Z,13.61
2022-10-02T06:58:46.963Z,13.67
2022-10-02T06:59:47.009Z,13.68
2022-10-02T07:00:47.058Z,13.71
2022-10-02T07:01:47.054Z,13.75
2022-10-02T07:02:46.891Z,13.76
2022-10-02T07:03:46.892Z,13.79
2022-10-02T07:04:46.854Z,13.80
2022-10-02T07:05:46.930Z,13.76
2022-10-02T07:06:46.844Z,13.67
2022-10-02T07:07:46.861Z,13.62
2022-10-02T07:08:46.833Z,13.58
2022-10-02T07:09:46.817Z,13.54
2022-10-02T07:10:46.794Z,13.46
2022-10-02T07:11:46.874Z,13.43
2022-10-02T07:12:47.755Z,13.42
2022-10-02T07:13:46.813Z,13.39
2022-10-02T07:14:46.780Z,13.33
2022-10-02T07:15:46.751Z,13.31
2022-10-02T07:16:46.769Z,13.27
2022-10-02T07:17:46.818Z,13.24
2022-10-02T07:18:46.728Z,13.23
2022-10-02T07:19:46.688Z,13.24
2022-10-02T07:20:46.683Z,13.28
2022-10-02T07:21:46.698Z,13.31
2022-10-02T07:22:46.728Z,13.31
2022-10-02T07:23:46.763Z,13.33
2022-10-02T07:24:46.675Z,13.31
2022-10-02T07:25:46.662Z,13.30
2022-10-02T07:26:46.738Z,13.26
2022-10-02T07:27:46.628Z,13.26
2022-10-02T07:28:46.603Z,13.23
2022-10-02T07:29:46.647Z,13.23
2022-10-02T07:30:46.626Z,13.21
2022-10-02T07:31:48.436Z,13.23
2022-10-02T07:32:46.620Z,13.20
2022-10-02T07:33:46.615Z,13.21
2022-10-02T07:34:47.509Z,13.21
2022-10-02T07:35:46.560Z,13.24
2022-10-02T07:36:46.549Z,13.24
2022-10-02T07:37:46.535Z,13.26
2022-10-02T07:38:46.770Z,13.26
2022-10-02T07:39:47.262Z,13.23
2022-10-02T07:40:46.459Z,13.24
2022-10-02T07:41:46.872Z,13.24
2022-10-02T07:42:46.434Z,13.26
2022-10-02T07:43:46.436Z,13.27
2022-10-02T07:44:46.432Z,13.30
2022-10-02T07:45:46.452Z,13.31
2022-10-02T07:46:46.415Z,13.33
2022-10-02T07:47:46.475Z,13.37
2022-10-02T07:48:46.518Z,13.43
2022-10-02T07:49:46.444Z,13.50
2022-10-02T07:50:46.390Z,13.58
2022-10-02T07:51:46.349Z,13.70
2022-10-02T07:52:46.340Z,13.85
2022-10-02T07:53:46.446Z,14.00
2022-10-02T07:54:46.337Z,14.15
2022-10-02T07:55:46.340Z,14.28
2022-10-02T07:56:46.300Z,14.36
2022-10-02T07:57:46.295Z,14.41
2022-10-02T07:58:46.284Z,14.48
2022-10-02T07:59:46.306Z,14.49
2022-10-02T08:00:46.282Z,14.49
2022-10-02T08:01:46.284Z,14.37
2022-10-02T08:02:46.322Z,14.25
2022-10-02T08:03:46.193Z,14.16
2022-10-02T08:04:46.188Z,14.01
2022-10-02T08:05:46.899Z,13.95
2022-10-02T08:06:46.218Z,13.86
2022-10-02T08:07:46.162Z,13.76
2022-10-02T08:08:46.361Z,13.73
2022-10-02T08:09:46.166Z,13.67
2022-10-02T08:10:46.185Z,13.65
2022-10-02T08:11:49.513Z,13.60
2022-10-02T08:12:46.153Z,13.57
2022-10-02T08:13:46.909Z,13.58
2022-10-02T08:14:46.097Z,13.58
2022-10-02T08:15:47.131Z,13.60
2022-10-02T08:16:46.095Z,13.65
2022-10-02T08:17:46.872Z,13.70
2022-10-02T08:18:46.074Z,13.73
2022-10-02T08:19:46.028Z,13.78
2022-10-02T08:20:46.031Z,13.82
2022-10-02T08:21:46.048Z,13.86
2022-10-02T08:22:46.025Z,13.93
2022-10-02T08:23:46.123Z,13.97
2022-10-02T08:24:47.002Z,14.05
2022-10-02T08:25:46.003Z,14.07
2022-10-02T08:26:45.944Z,14.12
2022-10-02T08:27:46.064Z,14.16
2022-10-02T08:28:45.938Z,14.19
2022-10-02T08:29:46.027Z,14.25
2022-10-02T08:30:45.891Z,14.25
2022-10-02T08:31:46.031Z,14.28
2022-10-02T08:32:45.918Z,14.31
2022-10-02T08:33:45.956Z,14.34
2022-10-02T08:34:45.939Z,14.40
2022-10-02T08:35:46.001Z,14.43
2022-10-02T08:36:45.863Z,14.44
2022-10-02T08:37:45.950Z,14.52
2022-10-02T08:38:46.477Z,14.55
2022-10-02T08:39:46.020Z,14.56
2022-10-02T08:40:46.050Z,14.59
2022-10-02T08:41:45.989Z,14.62
2022-10-02T08:42:45.971Z,14.68
2022-10-02T08:43:46.169Z,14.73
2022-10-02T08:44:45.969Z,14.87
2022-10-02T08:45:45.895Z,14.97
2022-10-02T08:46:45.765Z,15.08
2022-10-02T08:47:45.756Z,15.14
2022-10-02T08:48:45.844Z,15.17
2022-10-02T08:49:45.804Z,15.15
2022-10-02T08:50:45.686Z,15.14
2022-10-02T08:51:45.696Z,15.11
2022-10-02T08:52:45.737Z,14.99
2022-10-02T08:53:46.389Z,14.93
2022-10-02T08:54:45.627Z,14.86
2022-10-02T08:55:45.722Z,14.77
2022-10-02T08:56:45.657Z,14.71
2022-10-02T08:57:45.722Z,14.70
2022-10-02T08:58:45.659Z,14.70
2022-10-02T08:59:45.873Z,14.78
2022-10-02T09:00:45.612Z,14.81
2022-10-02T09:01:45.601Z,14.85
2022-10-02T09:02:45.642Z,14.90
2022-10-02T09:03:45.571Z,14.97
2022-10-02T09:04:45.593Z,15.05
2022-10-02T09:05:46.044Z,15.10
2022-10-02T09:06:45.511Z,15.17
2022-10-02T09:07:45.577Z,15.26
2022-10-02T09:08:45.944Z,15.33
2022-10-02T09:09:45.526Z,15.39
2022-10-02T09:10:45.542Z,15.47
2022-10-02T09:11:45.904Z,15.44
2022-10-02T09:12:45.614Z,15.41
2022-10-02T09:13:45.944Z,15.41
2022-10-02T09:14:45.771Z,15.43
2022-10-02T09:15:45.785Z,15.39
2022-10-02T09:16:45.926Z,15.30
2022-10-02T09:17:45.768Z,15.25
2022-10-02T09:18:45.869Z,15.17
2022-10-02T09:19:45.536Z,15.12
2022-10-02T09:20:45.644Z,15.05
2022-10-02T09:21:46.234Z,14.94
2022-10-02T09:22:46.036Z,14.92
2022-10-02T09:23:46.540Z,14.92
2022-10-02T09:24:45.740Z,14.93
2022-10-02T09:25:46.198Z,14.99
2022-10-02T09:26:45.301Z,15.08
2022-10-02T09:27:45.328Z,15.19
2022-10-02T09:28:45.309Z,15.33
2022-10-02T09:29:45.355Z,15.39
2022-10-02T09:30:45.236Z,15.44
2022-10-02T09:31:45.451Z,15.47
2022-10-02T09:32:45.207Z,15.51
2022-10-02T09:33:45.215Z,15.52
2022-10-02T09:34:45.270Z,15.59
2022-10-02T09:35:45.186Z,15.60
2022-10-02T09:36:45.225Z,15.63
2022-10-02T09:37:45.165Z,15.70
2022-10-02T09:38:45.164Z,15.69
2022-10-02T09:39:45.147Z,15.69
2022-10-02T09:40:45.249Z,15.69
2022-10-02T09:41:45.891Z,15.70
2022-10-02T09:42:46.232Z,15.76
2022-10-02T09:43:45.356Z,15.75
2022-10-02T09:44:46.333Z,15.78
2022-10-02T09:45:45.141Z,15.81
2022-10-02T09:46:45.265Z,15.84
2022-10-02T09:47:45.058Z,15.84
2022-10-02T09:48:45.040Z,15.84
2022-10-02T09:49:45.070Z,15.84
2022-10-02T09:50:45.228Z,15.83
2022-10-02T09:51:45.173Z,15.81
2022-10-02T09:52:45.226Z,15.81
2022-10-02T09:53:45.193Z,15.78
2022-10-02T09:54:45.194Z,15.83
2022-10-02T09:55:45.150Z,15.88
2022-10-02T09:56:45.151Z,15.90
2022-10-02T09:57:45.211Z,15.91
2022-10-02T09:58:45.236Z,15.94
2022-10-02T09:59:45.176Z,15.92
2022-10-02T10:00:45.312Z,15.91
2022-10-02T10:01:45.261Z,15.94
2022-10-02T10:02:45.352Z,15.91
2022-10-02T10:03:45.630Z,15.91
2022-10-02T10:05:04.533Z,15.92
2022-10-02T10:05:45.210Z,15.98
2022-10-02T10:06:45.302Z,16.02
2022-10-02T10:07:45.165Z,16.02
2022-10-02T10:08:45.164Z,16.00
2022-10-02T10:09:45.085Z,15.96
2022-10-02T10:10:45.339Z,15.99
2022-10-02T10:11:45.227Z,16.00
2022-10-02T10:12:45.104Z,15.99
2022-10-02T10:13:45.015Z,15.96
2022-10-02T10:14:45.089Z,15.92
2022-10-02T10:15:45.023Z,15.92
2022-10-02T10:16:45.081Z,15.88
2022-10-02T10:17:44.860Z,15.90
2022-10-02T10:18:44.765Z,15.92
2022-10-02T10:19:44.828Z,15.96
2022-10-02T10:20:45.124Z,15.96
2022-10-02T10:21:44.961Z,15.99
2022-10-02T10:22:45.512Z,16.02
2022-10-02T10:23:44.786Z,16.03
2022-10-02T10:24:44.790Z,16.05
2022-10-02T10:25:44.970Z,16.10
2022-10-02T10:26:44.623Z,16.12
2022-10-02T10:27:44.726Z,16.12
2022-10-02T10:28:44.664Z,16.10
2022-10-02T10:29:44.926Z,16.16
2022-10-02T10:30:45.119Z,16.17
2022-10-02T10:31:44.809Z,16.24
2022-10-02T10:32:44.943Z,16.29
2022-10-02T10:33:45.029Z,16.40
2022-10-02T10:34:45.952Z,16.44
2022-10-02T10:35:44.811Z,16.51
2022-10-02T10:36:46.814Z,16.59
2022-10-02T10:37:44.781Z,16.64
2022-10-02T10:38:44.917Z,16.73
2022-10-02T10:39:44.783Z,16.84
2022-10-02T10:40:45.849Z,16.98
2022-10-02T10:41:44.865Z,17.04
2022-10-02T10:43:05.962Z,17.14
2022-10-02T10:43:44.470Z,17.27
2022-10-02T10:44:44.724Z,17.30
2022-10-02T10:45:45.615Z,17.34
2022-10-02T10:46:44.808Z,17.30
2022-10-02T10:47:44.636Z,17.28
2022-10-02T10:48:49.226Z,17.17
2022-10-02T10:49:44.640Z,17.17
2022-10-02T10:50:44.632Z,17.28
2022-10-02T10:51:45.137Z,17.44
2022-10-02T10:52:44.793Z,17.30
2022-10-02T10:53:44.426Z,17.16
2022-10-02T10:54:45.372Z,17.05
2022-10-02T10:55:44.839Z,16.92
2022-10-02T10:56:44.656Z,16.69
2022-10-02T10:57:44.460Z,16.51
2022-10-02T10:58:44.721Z,16.39
2022-10-02T10:59:44.859Z,16.32
2022-10-02T11:00:44.457Z,16.26
2022-10-02T11:01:44.438Z,16.21
2022-10-02T11:02:44.488Z,16.10
2022-10-02T11:03:44.190Z,16.02
2022-10-02T11:04:44.343Z,15.99
2022-10-02T11:05:44.370Z,15.92
2022-10-02T11:06:46.239Z,15.90
2022-10-02T11:07:44.264Z,15.90
2022-10-02T11:08:44.194Z,15.90
2022-10-02T11:09:44.355Z,15.92
2022-10-02T11:10:44.166Z,16.00
2022-10-02T11:11:44.942Z,16.00
2022-10-02T11:12:44.133Z,16.00
2022-10-02T11:13:44.243Z,16.03
2022-10-02T11:14:44.071Z,16.00
2022-10-02T11:15:44.246Z,15.91
2022-10-02T11:16:44.442Z,15.84
2022-10-02T11:17:44.185Z,15.84
2022-10-02T11:18:44.094Z,15.83
2022-10-02T11:19:44.431Z,15.88
2022-10-02T11:20:44.019Z,15.88
2022-10-02T11:21:44.076Z,16.08
2022-10-02T11:22:44.292Z,16.32
2022-10-02T11:23:44.101Z,16.46
2022-10-02T11:24:44.013Z,16.47
2022-10-02T11:25:44.003Z,16.44
2022-10-02T11:26:44.023Z,16.41
2022-10-02T11:27:44.024Z,16.46
2022-10-02T11:28:44.010Z,16.50
2022-10-02T11:29:44.412Z,16.49
2022-10-02T11:30:45.133Z,16.40
2022-10-02T11:31:44.056Z,16.31
2022-10-02T11:32:43.975Z,16.22
2022-10-02T11:33:43.880Z,16.18
2022-10-02T11:34:43.925Z,16.18
2022-10-02T11:35:44.037Z,16.17
2022-10-02T11:36:43.945Z,16.09
2022-10-02T11:37:43.956Z,16.16
2022-10-02T11:38:44.044Z,16.25
2022-10-02T11:39:43.935Z,16.32
2022-10-02T11:40:44.030Z,16.43
2022-10-02T11:41:43.975Z,16.54
2022-10-02T11:42:43.771Z,16.61
2022-10-02T11:43:44.265Z,16.73
2022-10-02T11:44:43.816Z,16.83
2022-10-02T11:45:43.999Z,17.02
2022-10-02T11:46:43.954Z,17.10
2022-10-02T11:47:43.885Z,17.19
2022-10-02T11:48:43.769Z,17.23
2022-10-02T11:49:43.946Z,17.30
2022-10-02T11:50:43.991Z,17.32
2022-10-02T11:51:43.715Z,17.31
2022-10-02T11:52:48.161Z,17.41
2022-10-02T11:53:43.917Z,17.39
2022-10-02T11:54:43.889Z,17.47
2022-10-02T11:55:43.733Z,17.56
2022-10-02T11:56:43.925Z,17.54
2022-10-02T11:57:43.773Z,17.53
2022-10-02T11:58:43.973Z,17.59
2022-10-02T11:59:43.756Z,17.50
2022-10-02T12:00:43.810Z,17.56
2022-10-02T12:01:43.976Z,17.60
2022-10-02T12:02:44.186Z,17.69
2022-10-02T12:03:44.585Z,17.69
2022-10-02T12:04:43.877Z,17.37
2022-10-02T12:05:43.732Z,17.19
2022-10-02T12:06:43.755Z,17.27
2022-10-02T12:07:43.698Z,17.34
2022-10-02T12:08:43.722Z,17.52
2022-10-02T12:09:43.717Z,17.65
2022-10-02T12:10:43.537Z,17.68
2022-10-02T12:11:43.562Z,17.68
2022-10-02T12:12:43.440Z,17.49
2022-10-02T12:13:43.434Z,17.34
2022-10-02T12:14:43.797Z,17.22
2022-10-02T12:15:43.420Z,17.24
2022-10-02T12:16:43.481Z,17.28
2022-10-02T12:17:43.363Z,17.31
2022-10-02T12:18:43.941Z,17.30
2022-10-02T12:19:43.430Z,17.27
2022-10-02T12:20:43.334Z,17.20
2022-10-02T12:21:43.344Z,17.24
2022-10-02T12:22:43.381Z,17.32
2022-10-02T12:23:43.356Z,17.34
2022-10-02T12:24:43.309Z,17.53
2022-10-02T12:25:43.903Z,17.71
2022-10-02T12:26:43.316Z,18.05
2022-10-02T12:27:43.263Z,18.34
2022-10-02T12:28:43.407Z,18.85
2022-10-02T12:29:49.237Z,19.45
2022-10-02T12:30:43.219Z,19.97
2022-10-02T12:31:43.305Z,20.40
2022-10-02T12:32:43.200Z,21.01
2022-10-02T12:33:43.189Z,21.45
2022-10-02T12:34:43.214Z,21.68
2022-10-02T12:35:43.241Z,21.83
2022-10-02T12:36:43.180Z,21.74
2022-10-02T12:37:43.165Z,22.16
2022-10-02T12:38:43.122Z,21.84
2022-10-02T12:39:43.160Z,22.10
2022-10-02T12:40:43.128Z,22.43
2022-10-02T12:41:43.075Z,22.68
2022-10-02T12:42:43.081Z,21.48
2022-10-02T12:43:43.057Z,20.53
2022-10-02T12:44:43.051Z,21.37
2022-10-02T12:45:43.067Z,22.19
2022-10-02T12:46:43.071Z,22.41
2022-10-02T12:47:43.008Z,22.71
2022-10-02T12:48:43.191Z,22.95
2022-10-02T12:49:43.007Z,22.65
2022-10-02T12:50:43.285Z,21.08
2022-10-02T12:51:42.964Z,20.59
2022-10-02T12:52:43.004Z,21.28
2022-10-02T12:53:42.971Z,21.19
2022-10-02T12:54:42.999Z,22.33
2022-10-02T12:55:42.973Z,22.30
2022-10-02T12:56:42.916Z,21.69
2022-10-02T12:57:42.908Z,21.65
2022-10-02T12:58:42.994Z,22.70
2022-10-02T12:59:42.983Z,23.08
2022-10-02T13:00:42.870Z,22.84